createdAt,value
2019-02-05T00:00:50.260Z,98040.53
2019-02-05T00:03:23.408Z,98042.34
2019-02-05T00:05:55.429Z,98041.66
2019-02-05T00:08:27.070Z,98041.68
2019-02-05T00:11:00.030Z,98039.44
2019-02-05T00:13:31.533Z,98050.80
2019-02-05T00:16:04.475Z,98044.05
2019-02-05T00:18:36.039Z,98045.04
2019-02-05T00:21:08.806Z,98044.52
2019-02-05T00:23:40.784Z,98043.88
2019-02-05T00:26:12.529Z,98045.80
2019-02-05T00:28:48.420Z,98044.69
2019-02-05T00:31:20.120Z,98049.91
2019-02-05T00:33:52.736Z,98046.00
2019-02-05T00:36:24.422Z,98050.00
2019-02-05T00:38:55.961Z,98049.13
2019-02-05T00:41:27.957Z,98048.75
2019-02-05T00:43:59.551Z,98050.74
2019-02-05T00:46:31.410Z,98054.41
2019-02-05T00:49:03.032Z,98058.95
2019-02-05T00:51:34.579Z,98058.41
2019-02-05T00:54:07.582Z,98057.09
2019-02-05T00:56:39.411Z,98061.66
2019-02-05T00:59:11.500Z,98060.03
2019-02-05T01:01:45.351Z,98059.27
2019-02-05T01:04:17.888Z,98054.50
2019-02-05T01:06:49.531Z,98057.20
2019-02-05T01:09:21.089Z,98063.99
2019-02-05T01:11:53.031Z,98066.88
2019-02-05T01:14:24.719Z,98063.19
2019-02-05T01:16:57.639Z,98066.16
2019-02-05T01:19:29.773Z,98065.28
2019-02-05T01:22:01.415Z,98070.02
2019-02-05T01:24:33.010Z,98072.47
2019-02-05T01:27:06.819Z,98077.30
2019-02-05T01:29:38.291Z,98083.27
2019-02-05T01:32:11.714Z,98076.20
2019-02-05T01:34:44.179Z,98070.78
2019-02-05T01:37:15.691Z,98066.93
2019-02-05T01:39:49.678Z,98060.75
2019-02-05T01:42:21.491Z,98064.48
2019-02-05T01:44:53.572Z,98070.31
2019-02-05T01:47:28.250Z,98067.81
2019-02-05T01:49:59.794Z,98066.45
2019-02-05T01:52:31.339Z,98064.33
2019-02-05T01:55:04.680Z,98054.20
2019-02-05T01:57:36.204Z,98061.91
2019-02-05T02:00:10.650Z,98058.37
2019-02-05T02:02:42.360Z,98056.48
2019-02-05T02:05:16.467Z,98057.25
2019-02-05T02:07:48.642Z,98056.20
2019-02-05T02:10:22.934Z,98055.20
2019-02-05T02:12:55.482Z,98055.88
2019-02-05T02:15:27.146Z,98067.14
2019-02-05T02:17:58.715Z,98071.67
2019-02-05T02:20:30.411Z,98072.56
2019-02-05T02:23:02.318Z,98068.66
2019-02-05T02:25:34.134Z,98064.95
2019-02-05T02:28:07.289Z,98065.48
2019-02-05T02:30:40.636Z,98067.57
2019-02-05T02:33:12.331Z,98075.95
2019-02-05T02:35:43.955Z,98073.63
2019-02-05T02:38:16.868Z,98074.00
2019-02-05T02:40:48.675Z,98077.48
2019-02-05T02:43:20.342Z,98070.22
2019-02-05T02:45:51.973Z,98066.56
2019-02-05T02:48:24.092Z,98072.31
2019-02-05T02:50:55.859Z,98068.73
2019-02-05T02:53:27.861Z,98067.33
2019-02-05T02:55:59.530Z,98066.41
2019-02-05T02:58:31.151Z,98070.52
2019-02-05T03:01:02.677Z,98075.85
2019-02-05T03:03:34.391Z,98072.95
2019-02-05T03:06:06.278Z,98076.30
2019-02-05T03:08:38.984Z,98068.70
2019-02-05T03:11:10.730Z,98054.95
2019-02-05T03:13:42.358Z,98047.69
2019-02-05T03:16:13.989Z,98048.13
2019-02-05T03:18:45.572Z,98060.38
2019-02-05T03:21:17.301Z,98058.89
2019-02-05T03:23:50.576Z,98050.86
2019-02-05T03:26:22.351Z,98042.42
2019-02-05T03:28:55.700Z,98038.77
2019-02-05T03:31:27.259Z,98041.74
2019-02-05T03:33:58.918Z,98040.70
2019-02-05T03:36:33.408Z,98044.76
2019-02-05T03:39:06.262Z,98039.17
2019-02-05T03:41:37.760Z,98038.16
2019-02-05T03:44:09.809Z,98030.13
2019-02-05T03:46:41.330Z,98041.38
2019-02-05T03:49:13.243Z,98037.60
2019-02-05T03:52:14.580Z,98035.67
2019-02-05T03:55:20.497Z,98035.10
2019-02-05T03:58:41.428Z,98030.44
2019-02-05T04:01:46.881Z,98035.89
2019-02-05T04:04:49.719Z,98041.23
2019-02-05T04:08:32.100Z,98039.83
2019-02-05T04:11:36.759Z,98041.95
2019-02-05T04:15:18.796Z,98036.81
2019-02-05T04:18:29.999Z,98042.15
2019-02-05T04:21:41.289Z,98041.70
2019-02-05T04:24:38.516Z,98037.85
2019-02-05T04:27:46.894Z,98030.44
2019-02-05T04:30:43.256Z,98025.49
2019-02-05T04:33:54.328Z,98021.91
2019-02-05T04:36:52.919Z,98026.41
2019-02-05T04:40:05.861Z,98029.25
2019-02-05T04:43:14.322Z,98031.30
2019-02-05T04:46:37.579Z,98026.11
2019-02-05T04:49:52.169Z,98031.95
2019-02-05T04:52:49.310Z,98032.84
2019-02-05T04:55:53.692Z,98037.45
2019-02-05T04:59:10.439Z,98036.84
2019-02-05T05:02:26.363Z,98028.48
2019-02-05T05:05:11.121Z,98031.96
2019-02-05T05:08:30.918Z,98032.59
2019-02-05T05:11:02.628Z,98038.61
2019-02-05T05:13:34.764Z,98042.35
2019-02-05T05:16:06.372Z,98049.36
2019-02-05T05:18:38.149Z,98048.59
2019-02-05T05:21:09.684Z,98052.11
2019-02-05T05:23:41.358Z,98050.17
2019-02-05T05:26:12.836Z,98053.32
2019-02-05T05:28:45.859Z,98059.67
2019-02-05T05:31:17.418Z,98070.02
2019-02-05T05:33:49.043Z,98076.43
2019-02-05T05:36:20.558Z,98078.08
2019-02-05T05:38:52.025Z,98082.52
2019-02-05T05:41:23.889Z,98078.00
2019-02-05T05:43:55.662Z,98076.17
2019-02-05T05:46:27.312Z,98083.17
2019-02-05T05:48:58.908Z,98091.14
2019-02-05T05:51:30.576Z,98089.19
2019-02-05T05:54:02.381Z,98100.74
2019-02-05T05:56:34.028Z,98106.32
2019-02-05T05:59:05.493Z,98105.77
2019-02-05T06:01:37.057Z,98113.66
2019-02-05T06:04:08.751Z,98103.83
2019-02-05T06:06:40.352Z,98110.06
2019-02-05T06:09:11.859Z,98115.70
2019-02-05T06:11:43.414Z,98119.93
2019-02-05T06:14:14.939Z,98118.89
2019-02-05T06:16:46.529Z,98120.18
2019-02-05T06:19:19.193Z,98130.27
2019-02-05T06:21:50.712Z,98127.37
2019-02-05T06:24:22.309Z,98120.52
2019-02-05T06:26:53.838Z,98130.27
2019-02-05T06:29:25.464Z,98128.10
2019-02-05T06:31:57.199Z,98132.84
2019-02-05T06:34:28.952Z,98132.64
2019-02-05T06:37:00.576Z,98135.55
2019-02-05T06:39:32.146Z,98131.39
2019-02-05T06:42:03.699Z,98130.41
2019-02-05T06:44:35.230Z,98131.80
2019-02-05T06:47:07.079Z,98128.21
2019-02-05T06:49:38.568Z,98133.41
2019-02-05T06:52:10.099Z,98139.09
2019-02-05T06:54:41.757Z,98146.60
2019-02-05T06:57:13.461Z,98152.60
2019-02-05T06:59:45.006Z,98151.93
2019-02-05T07:02:16.632Z,98147.47
2019-02-05T07:04:48.252Z,98139.00
2019-02-05T07:07:19.803Z,98143.50
2019-02-05T07:09:51.313Z,98130.61
2019-02-05T07:12:22.929Z,98139.16
2019-02-05T07:14:54.810Z,98139.42
2019-02-05T07:17:26.284Z,98148.08
2019-02-05T07:19:57.933Z,98145.58
2019-02-05T07:22:30.099Z,98140.44
2019-02-05T07:25:01.597Z,98135.38
2019-02-05T07:27:33.558Z,98129.73
2019-02-05T07:30:06.475Z,98131.78
2019-02-05T07:32:38.344Z,98134.80
2019-02-05T07:35:10.027Z,98142.24
2019-02-05T07:37:42.314Z,98131.02
2019-02-05T07:40:15.783Z,98143.34
2019-02-05T07:42:47.230Z,98138.28
2019-02-05T07:45:21.400Z,98143.08
2019-02-05T07:47:52.998Z,98142.61
2019-02-05T07:50:26.360Z,98137.43
2019-02-05T07:52:57.848Z,98140.27
2019-02-05T07:55:29.737Z,98139.27
2019-02-05T07:58:01.358Z,98135.97
2019-02-05T08:00:33.084Z,98136.73
2019-02-05T08:03:05.258Z,98136.59
2019-02-05T08:05:37.393Z,98137.33
2019-02-05T08:08:09.480Z,98136.67
2019-02-05T08:10:41.436Z,98132.05
2019-02-05T08:13:12.972Z,98138.61
2019-02-05T08:15:44.642Z,98130.69
2019-02-05T08:18:16.371Z,98131.61
2019-02-05T08:20:47.858Z,98124.86
2019-02-05T08:23:19.481Z,98137.37
2019-02-05T08:25:51.112Z,98135.83
2019-02-05T08:28:22.699Z,98135.97
2019-02-05T08:30:54.459Z,98138.72
2019-02-05T08:33:26.065Z,98137.84
2019-02-05T09:17:42.670Z,98115.05
2019-02-05T09:20:17.578Z,98112.62
2019-02-05T09:22:51.264Z,98119.02
2019-02-05T09:25:26.033Z,98108.99
2019-02-05T09:28:00.955Z,98110.23
2019-02-05T09:30:35.078Z,98108.00
2019-02-05T09:33:13.612Z,98108.61
2019-02-05T09:35:52.734Z,98112.77
2019-02-05T09:38:25.850Z,98117.52
2019-02-05T09:41:03.356Z,98133.70
2019-02-05T09:43:37.946Z,98131.86
2019-02-05T09:46:13.636Z,98135.59
2019-02-05T09:48:46.464Z,98138.83
2019-02-05T09:51:19.943Z,98141.77
2019-02-05T09:53:51.456Z,98139.55
2019-02-05T09:56:26.140Z,98144.75
2019-02-05T09:59:00.928Z,98140.91
2019-02-05T10:01:37.175Z,98125.40
2019-02-05T10:04:14.548Z,98126.67
2019-02-05T10:06:50.103Z,98117.03
2019-02-05T10:09:23.415Z,98128.27
2019-02-05T10:11:59.696Z,98128.16
2019-02-05T10:14:33.006Z,98123.16
2019-02-05T10:17:06.186Z,98128.63
2019-02-05T10:19:40.222Z,98123.80
2019-02-05T10:22:11.756Z,98106.77
2019-02-05T10:24:45.825Z,98116.39
2019-02-05T10:27:23.611Z,98119.92
2019-02-05T10:29:59.633Z,98123.63
2019-02-05T10:32:33.134Z,98123.63
2019-02-05T10:35:08.729Z,98128.33
2019-02-05T10:37:43.153Z,98128.33
2019-02-05T10:40:14.815Z,98121.69
2019-02-05T10:42:49.568Z,98121.72
2019-02-05T10:45:25.524Z,98127.70
2019-02-05T10:47:58.517Z,98130.70
2019-02-05T10:50:31.744Z,98128.41
2019-02-05T10:53:05.364Z,98127.30
2019-02-05T10:55:36.923Z,98123.07
2019-02-05T10:58:10.946Z,98131.09
2019-02-05T11:00:48.531Z,98131.09
2019-02-05T11:03:21.596Z,98126.66
2019-02-05T11:05:57.212Z,98125.58
2019-02-05T11:08:42.417Z,98129.72
2019-02-05T11:11:16.468Z,98122.03
2019-02-05T11:13:48.138Z,98122.45
2019-02-05T11:16:19.885Z,98125.05
2019-02-05T11:18:53.512Z,98120.48
2019-02-05T11:21:25.349Z,98112.36
2019-02-05T11:24:00.404Z,98125.17
2019-02-05T11:26:33.176Z,98121.56
2019-02-05T11:29:04.751Z,98127.19
2019-02-05T11:31:37.349Z,98127.19
2019-02-05T11:34:25.236Z,98124.70
2019-02-05T11:36:56.975Z,98120.87
2019-02-05T11:39:32.462Z,98118.69
2019-02-05T11:42:04.722Z,98118.21
2019-02-05T11:44:36.928Z,98119.09
2019-02-05T11:47:08.936Z,98105.69
2019-02-05T11:49:43.722Z,98105.69
2019-02-05T11:52:16.422Z,98106.81
2019-02-05T11:54:50.358Z,98108.93
2019-02-05T11:57:22.027Z,98110.67
2019-02-05T12:00:00.867Z,98103.80
2019-02-05T12:02:36.508Z,98096.69
2019-02-05T12:05:11.001Z,98105.00
2019-02-05T12:07:45.224Z,98098.14
2019-02-05T12:10:17.995Z,98103.03
2019-02-05T12:12:49.565Z,98095.72
2019-02-05T12:15:21.708Z,98093.69
2019-02-05T12:17:53.646Z,98087.95
2019-02-05T12:20:30.039Z,98085.66
2019-02-05T12:23:02.875Z,98082.30
2019-02-05T12:25:35.041Z,98086.17
2019-02-05T12:28:07.454Z,98072.94
2019-02-05T12:30:45.430Z,98073.58
2019-02-05T12:33:20.146Z,98070.66
2019-02-05T12:35:54.776Z,98064.70
2019-02-05T12:38:31.535Z,98060.56
2019-02-05T12:41:10.735Z,98053.53
2019-02-05T12:43:45.844Z,98045.36
2019-02-05T12:46:19.116Z,98050.39
2019-02-05T12:48:50.714Z,98050.33
2019-02-05T12:51:24.056Z,98048.33
2019-02-05T12:53:56.816Z,98047.45
2019-02-05T12:56:30.714Z,98042.88
2019-02-05T12:59:03.723Z,98040.54
2019-02-05T13:01:39.073Z,98041.14
2019-02-05T13:04:10.355Z,98042.52
2019-02-05T13:06:42.016Z,98044.50
2019-02-05T13:09:14.103Z,98044.17
2019-02-05T13:11:45.614Z,98040.63
2019-02-05T13:14:18.895Z,98039.23
2019-02-05T13:16:50.427Z,98041.19
2019-02-05T13:19:22.007Z,98044.75
2019-02-05T13:21:55.746Z,98041.81
2019-02-05T13:24:27.374Z,98036.33
2019-02-05T13:26:59.066Z,98036.01
2019-02-05T13:29:30.728Z,98033.08
2019-02-05T13:32:02.214Z,98036.43
2019-02-05T13:34:33.653Z,98031.97
2019-02-05T13:37:05.427Z,98039.40
2019-02-05T13:39:38.475Z,98040.23
2019-02-05T13:42:13.364Z,98035.75
2019-02-05T13:44:45.133Z,98035.62
2019-02-05T13:47:16.720Z,98039.54
2019-02-05T13:49:48.176Z,98036.43
2019-02-05T13:52:19.754Z,98034.56
2019-02-05T13:54:51.314Z,98026.00
2019-02-05T13:57:25.106Z,98028.88
2019-02-05T13:59:56.649Z,98015.47
2019-02-05T14:02:28.275Z,98007.27
2019-02-05T14:04:59.956Z,98012.41
2019-02-05T14:07:31.641Z,98011.13
2019-02-05T14:10:06.135Z,98024.63
2019-02-05T14:12:37.725Z,98021.27
2019-02-05T14:15:10.666Z,98017.17
2019-02-05T14:17:42.176Z,98009.64
2019-02-05T14:20:14.310Z,98013.38
2019-02-05T14:22:46.166Z,98007.78
2019-02-05T14:25:17.876Z,98006.41
2019-02-05T14:27:51.023Z,98003.61
2019-02-05T14:30:26.558Z,98006.05
2019-02-05T14:32:58.125Z,98005.19
2019-02-05T14:35:29.676Z,98000.77
2019-02-05T14:38:02.497Z,97996.05
2019-02-05T14:40:33.917Z,98003.21
2019-02-05T14:43:09.576Z,98000.83
2019-02-05T14:45:45.149Z,97998.60
2019-02-05T14:48:21.616Z,97993.02
2019-02-05T14:50:54.361Z,97996.47
2019-02-05T14:53:31.795Z,97991.78
2019-02-05T14:56:23.327Z,97988.86
2019-02-05T14:58:59.229Z,97994.53
2019-02-05T15:01:30.829Z,97990.80
2019-02-05T15:04:03.906Z,97991.20
2019-02-05T15:06:35.389Z,97988.80
2019-02-05T15:09:08.306Z,97996.39
2019-02-05T15:11:42.259Z,97999.48
2019-02-05T15:14:15.299Z,97998.92
2019-02-05T15:16:47.055Z,97991.67
2019-02-05T15:19:18.563Z,97989.19
2019-02-05T15:21:52.545Z,97984.28
2019-02-05T15:24:24.148Z,97988.46
2019-02-05T15:26:55.628Z,97975.89
2019-02-05T15:29:27.384Z,97979.69
2019-02-05T15:31:59.075Z,97977.84
2019-02-05T15:34:35.441Z,97971.95
2019-02-05T15:37:06.872Z,97971.55
2019-02-05T15:39:38.547Z,97962.25
2019-02-05T15:42:10.091Z,97966.69
2019-02-05T15:44:41.757Z,97964.13
2019-02-05T15:47:13.343Z,97966.36
2019-02-05T15:49:46.233Z,97967.39
2019-02-05T15:52:18.776Z,97967.13
2019-02-05T15:54:50.386Z,97969.25
2019-02-05T15:57:21.916Z,97968.78
2019-02-05T15:59:53.394Z,97969.30
2019-02-05T16:02:25.413Z,97968.45
2019-02-05T16:04:58.657Z,97967.06
2019-02-05T16:07:30.465Z,97970.83
2019-02-05T16:10:02.035Z,97970.98
2019-02-05T16:12:33.586Z,97967.38
2019-02-05T16:15:06.770Z,97967.66
2019-02-05T16:17:39.269Z,97969.52
2019-02-05T16:20:11.995Z,97960.99
2019-02-05T16:22:43.635Z,97970.23
2019-02-05T16:25:15.558Z,97974.83
2019-02-05T16:27:47.162Z,97980.33
2019-02-05T16:30:21.734Z,97976.80
2019-02-05T16:32:53.325Z,97978.42
2019-02-05T16:35:25.985Z,97975.42
2019-02-05T16:37:57.675Z,97972.16
2019-02-05T16:40:33.511Z,97968.21
2019-02-05T16:43:05.865Z,97970.98
2019-02-05T16:45:38.893Z,97971.59
2019-02-05T16:48:10.466Z,97970.88
2019-02-05T16:50:47.964Z,97970.61
2019-02-05T16:53:19.191Z,97967.17
2019-02-05T16:55:58.463Z,97964.61
2019-02-05T16:58:30.214Z,97963.03
2019-02-05T17:01:01.813Z,97970.78
2019-02-05T17:03:33.441Z,97962.55
2019-02-05T17:06:05.406Z,97964.67
2019-02-05T17:08:36.953Z,97961.00
2019-02-05T17:11:08.470Z,97971.19
2019-02-05T17:13:40.023Z,97977.22
2019-02-05T17:16:11.781Z,97983.62
2019-02-05T17:18:43.357Z,97976.77
2019-02-05T17:21:14.877Z,97973.69
2019-02-05T17:23:46.626Z,97982.13
2019-02-05T17:26:18.100Z,97979.87
2019-02-05T17:28:49.705Z,97970.53
2019-02-05T17:31:21.294Z,97983.67
2019-02-05T17:33:52.785Z,97982.27
2019-02-05T17:36:24.440Z,97976.77
2019-02-05T17:38:56.098Z,97983.59
2019-02-05T17:41:27.735Z,97983.61
2019-02-05T17:43:59.385Z,97972.69
2019-02-05T17:46:31.046Z,97968.34
2019-02-05T17:49:02.637Z,97959.72
2019-02-05T17:51:34.274Z,97944.41
2019-02-05T17:54:06.898Z,97952.16
2019-02-05T17:56:38.423Z,97944.25
2019-02-05T17:59:09.979Z,97942.46
2019-02-05T18:01:41.666Z,97933.06
2019-02-05T18:04:13.264Z,97941.34
2019-02-05T18:06:44.778Z,97936.16
2019-02-05T18:09:16.304Z,97927.16
2019-02-05T18:11:47.807Z,97922.10
2019-02-05T18:14:19.356Z,97907.75
2019-02-05T18:16:51.540Z,97896.27
2019-02-05T18:19:23.485Z,97897.44
2019-02-05T18:21:55.039Z,97903.17
2019-02-05T18:24:26.521Z,97911.25
2019-02-05T18:26:58.532Z,97911.02
2019-02-05T18:29:30.048Z,97903.84
2019-02-05T18:32:01.602Z,97900.67
2019-02-05T18:34:33.215Z,97903.40
2019-02-05T18:37:04.882Z,97917.61
2019-02-05T18:39:36.411Z,97925.48
2019-02-05T18:42:08.525Z,97911.59
2019-02-05T18:44:40.114Z,97906.36
2019-02-05T18:47:14.284Z,97902.80
2019-02-05T18:49:44.875Z,97900.67
2019-02-05T18:52:16.596Z,97907.14
2019-02-05T18:54:48.191Z,97911.52
2019-02-05T18:57:19.827Z,97903.53
2019-02-05T18:59:51.454Z,97905.34
2019-02-05T19:02:23.115Z,97907.91
2019-02-05T19:04:54.745Z,97910.70
2019-02-05T19:07:26.516Z,97914.66
2019-02-05T19:09:58.034Z,97918.30
2019-02-05T19:12:29.650Z,97922.14
2019-02-05T19:15:01.107Z,97913.43
2019-02-05T19:17:34.056Z,97927.73
2019-02-05T19:20:06.418Z,97935.22
2019-02-05T19:22:37.967Z,97946.37
2019-02-05T19:25:27.241Z,97940.56
2019-02-05T19:27:58.845Z,97940.91
2019-02-05T19:30:34.735Z,97933.24
2019-02-05T19:33:06.850Z,97931.55
2019-02-05T19:35:42.445Z,97923.72
2019-02-05T19:38:13.993Z,97930.06
2019-02-05T19:40:57.169Z,97925.66
2019-02-05T19:43:23.592Z,97918.77
2019-02-05T19:46:16.520Z,97916.42
2019-02-05T19:49:21.124Z,97917.15
2019-02-05T19:51:43.258Z,97918.86
2019-02-05T19:54:15.124Z,97911.25
2019-02-05T19:56:46.751Z,97919.02
2019-02-05T19:59:18.985Z,97919.39
2019-02-05T20:01:50.565Z,97912.84
2019-02-05T20:04:22.186Z,97903.98
2019-02-05T20:06:53.985Z,97910.00
2019-02-05T20:09:25.724Z,97926.16
2019-02-05T20:11:57.395Z,97931.00
2019-02-05T20:14:29.141Z,97937.36
2019-02-05T20:17:03.148Z,97938.77
2019-02-05T20:19:50.204Z,97946.38
2019-02-05T20:22:30.759Z,97954.12
2019-02-05T20:25:02.315Z,97950.44
2019-02-05T20:27:35.545Z,97960.03
2019-02-05T20:30:08.495Z,97970.33
2019-02-05T20:32:40.066Z,97968.09
2019-02-05T20:35:11.622Z,97978.73
2019-02-05T20:37:43.284Z,97991.66
2019-02-05T20:40:19.865Z,98015.09
2019-02-05T20:42:51.581Z,98023.41
2019-02-05T20:45:32.016Z,98017.53
2019-02-05T20:48:03.704Z,98009.80
2019-02-05T20:50:35.516Z,97998.90
2019-02-05T20:53:13.997Z,97979.22
2019-02-05T20:55:48.466Z,97978.38
2019-02-05T20:58:21.393Z,97977.59
2019-02-05T21:00:58.306Z,97964.76
2019-02-05T21:03:29.927Z,97956.30
2019-02-05T21:06:01.436Z,97948.96
2019-02-05T21:08:33.042Z,97940.10
2019-02-05T21:11:04.798Z,97925.03
2019-02-05T21:13:36.363Z,97921.05
2019-02-05T21:16:08.545Z,97911.67
2019-02-05T21:18:40.017Z,97904.09
2019-02-05T21:21:11.698Z,97914.61
2019-02-05T21:23:43.289Z,97911.03
2019-02-05T21:26:15.085Z,97910.68
2019-02-05T21:28:47.295Z,97908.62
2019-02-05T21:31:18.973Z,97900.20
2019-02-05T21:33:50.654Z,97912.67
2019-02-05T21:36:22.246Z,97909.19
2019-02-05T21:38:53.973Z,97909.48
2019-02-05T21:41:25.504Z,97898.63
2019-02-05T21:43:57.103Z,97899.67
2019-02-05T21:46:28.628Z,97894.17
2019-02-05T21:49:00.335Z,97900.20
2019-02-05T21:51:40.600Z,97909.92
2019-02-05T21:54:05.690Z,97913.78
2019-02-05T21:56:37.245Z,97910.55
2019-02-05T21:59:08.788Z,97908.20
2019-02-05T22:01:40.451Z,97904.25
2019-02-05T22:04:12.059Z,97898.71
2019-02-05T22:06:43.799Z,97886.49
2019-02-05T22:09:15.747Z,97893.95
2019-02-05T22:11:47.383Z,97882.47
2019-02-05T22:14:19.582Z,97873.17
2019-02-05T22:16:51.133Z,97878.98
2019-02-05T22:19:23.225Z,97884.75
2019-02-05T22:21:55.155Z,97883.39
2019-02-05T22:24:26.755Z,97880.38
2019-02-05T22:26:58.406Z,97880.03
2019-02-05T22:29:29.976Z,97885.43
2019-02-05T22:32:01.534Z,97870.84
2019-02-05T22:34:39.275Z,97859.56
2019-02-05T22:37:06.355Z,97853.06
2019-02-05T22:39:38.593Z,97852.52
2019-02-05T22:42:10.170Z,97851.11
2019-02-05T22:44:41.845Z,97843.84
2019-02-05T22:47:13.247Z,97842.77
2019-02-05T22:49:44.855Z,97848.80
2019-02-05T22:52:16.356Z,97842.14
2019-02-05T22:54:47.967Z,97815.56
2019-02-05T22:57:19.623Z,97804.58
2019-02-05T22:59:51.256Z,97802.70
2019-02-05T23:02:22.886Z,97778.66
2019-02-05T23:05:08.553Z,97776.11
2019-02-05T23:07:40.133Z,97776.13
2019-02-05T23:10:30.099Z,97782.52
2019-02-05T23:13:09.365Z,97788.70
2019-02-05T23:15:43.873Z,97781.97
2019-02-05T23:18:15.867Z,97778.20
2019-02-05T23:20:49.530Z,97761.33
2019-02-05T23:23:22.246Z,97756.68
2019-02-05T23:25:55.175Z,97756.23
2019-02-05T23:28:26.818Z,97753.91
2019-02-05T23:30:58.447Z,97749.67
2019-02-05T23:33:30.135Z,97736.48
2019-02-05T23:36:01.779Z,97736.25
2019-02-05T23:38:33.762Z,97750.01
2019-02-05T23:41:05.462Z,97731.28
2019-02-05T23:43:37.077Z,97725.89
2019-02-05T23:46:08.726Z,97727.25
2019-02-05T23:48:40.226Z,97724.13
2019-02-05T23:51:11.909Z,97728.30
2019-02-05T23:53:43.545Z,97725.61
2019-02-05T23:56:25.327Z,97730.55
2019-02-05T23:58:48.713Z,97720.40
